createdAt,value
2023-01-26T00:00:18.070Z,51.89
2023-01-26T00:02:46.392Z,51.64
2023-01-26T00:05:14.739Z,51.43
2023-01-26T00:07:45.701Z,51.28
2023-01-26T00:10:15.414Z,51.10
2023-01-26T00:12:44.157Z,51.38
2023-01-26T00:15:12.772Z,51.22
2023-01-26T00:17:41.743Z,50.94
2023-01-26T00:20:11.346Z,50.64
2023-01-26T00:22:40.171Z,50.68
2023-01-26T00:25:11.545Z,50.74
2023-01-26T00:27:39.916Z,51.33
2023-01-26T00:30:09.527Z,51.62
2023-01-26T00:32:39.237Z,51.45
2023-01-26T00:35:08.279Z,51.14
2023-01-26T00:37:38.084Z,50.98
2023-01-26T00:40:10.750Z,50.77
2023-01-26T00:42:40.100Z,50.62
2023-01-26T00:45:09.320Z,50.58
2023-01-26T00:47:37.768Z,50.65
2023-01-26T00:50:06.850Z,50.67
2023-01-26T00:52:35.356Z,50.79
2023-01-26T00:55:03.920Z,50.85
2023-01-26T00:57:32.649Z,51.59
2023-01-26T01:00:01.075Z,51.83
2023-01-26T01:02:29.866Z,51.96
2023-01-26T01:04:58.497Z,51.92
2023-01-26T01:07:29.280Z,51.98
2023-01-26T01:09:58.269Z,52.16
2023-01-26T01:12:28.077Z,52.27
2023-01-26T01:14:57.602Z,51.84
2023-01-26T01:17:26.223Z,51.44
2023-01-26T01:19:54.559Z,51.32
2023-01-26T01:22:23.478Z,51.41
2023-01-26T01:24:51.895Z,51.15
2023-01-26T01:27:20.292Z,50.89
2023-01-26T01:29:50.926Z,50.96
2023-01-26T01:32:20.234Z,50.89
2023-01-26T01:34:49.049Z,50.86
2023-01-26T01:37:17.783Z,50.68
2023-01-26T01:39:46.484Z,51.07
2023-01-26T01:42:15.218Z,51.21
2023-01-26T01:44:43.941Z,51.36
2023-01-26T01:47:17.282Z,51.21
2023-01-26T01:49:47.994Z,51.22
2023-01-26T01:52:27.203Z,51.08
2023-01-26T01:55:15.935Z,50.82
2023-01-26T01:57:51.892Z,50.65
2023-01-26T02:00:22.718Z,50.85
2023-01-26T02:03:13.841Z,51.05
2023-01-26T02:05:56.252Z,51.02
2023-01-26T02:08:31.637Z,51.00
2023-01-26T02:11:01.840Z,51.19
2023-01-26T02:13:31.990Z,51.15
2023-01-26T02:16:04.211Z,51.39
2023-01-26T02:18:32.992Z,51.21
2023-01-26T02:21:09.369Z,51.30
2023-01-26T02:24:02.891Z,51.31
2023-01-26T02:26:33.675Z,51.54
2023-01-26T02:29:05.062Z,51.57
2023-01-26T02:31:34.754Z,51.16
2023-01-26T02:34:03.073Z,51.15
2023-01-26T02:36:32.499Z,51.02
2023-01-26T02:39:19.827Z,50.66
2023-01-26T02:42:08.523Z,50.59
2023-01-26T02:44:38.975Z,50.74
2023-01-26T02:47:17.756Z,51.08
2023-01-26T02:49:47.234Z,51.32
2023-01-26T02:52:20.496Z,51.06
2023-01-26T02:55:14.273Z,51.08
2023-01-26T02:57:43.016Z,51.33
2023-01-26T03:00:17.250Z,51.76
2023-01-26T03:02:46.307Z,51.65
2023-01-26T03:05:14.829Z,51.66
2023-01-26T03:07:44.217Z,51.26
2023-01-26T03:10:13.512Z,50.80
2023-01-26T03:12:42.880Z,50.49
2023-01-26T03:15:31.690Z,50.44
2023-01-26T03:18:27.306Z,49.81
2023-01-26T03:21:14.442Z,49.93
2023-01-26T03:24:02.419Z,50.52
2023-01-26T03:26:50.206Z,50.80
2023-01-26T03:29:19.855Z,50.90
2023-01-26T03:31:48.578Z,50.59
2023-01-26T03:34:17.078Z,50.45
2023-01-26T03:36:47.452Z,50.38
2023-01-26T03:39:35.051Z,50.30
2023-01-26T03:42:23.967Z,50.20
2023-01-26T03:45:11.035Z,50.07
2023-01-26T03:47:59.528Z,50.05
2023-01-26T03:50:47.184Z,50.33
2023-01-26T03:53:37.269Z,50.50
2023-01-26T03:56:18.569Z,50.71
2023-01-26T03:58:52.692Z,50.80
2023-01-26T04:01:28.337Z,50.76
2023-01-26T04:04:19.387Z,50.89
2023-01-26T04:07:08.354Z,50.79
2023-01-26T04:09:39.863Z,51.23
2023-01-26T04:12:10.529Z,50.68
2023-01-26T04:15:05.623Z,50.33
2023-01-26T04:17:53.089Z,50.09
2023-01-26T04:20:40.301Z,50.23
2023-01-26T04:23:18.100Z,50.19
2023-01-26T04:25:48.006Z,50.42
2023-01-26T04:28:16.590Z,50.01
2023-01-26T04:30:45.839Z,50.40
2023-01-26T04:33:14.605Z,50.30
2023-01-26T04:35:42.972Z,50.44
2023-01-26T04:38:11.676Z,50.16
2023-01-26T04:40:43.043Z,49.71
2023-01-26T04:43:12.642Z,50.13
2023-01-26T04:45:41.163Z,50.29
2023-01-26T04:48:09.592Z,50.10
2023-01-26T04:50:38.368Z,49.91
2023-01-26T04:53:06.831Z,50.03
2023-01-26T04:55:35.637Z,49.93
2023-01-26T04:58:04.092Z,50.52
2023-01-26T05:00:33.451Z,50.36
2023-01-26T05:03:05.484Z,50.60
2023-01-26T05:05:38.487Z,50.67
2023-01-26T05:08:07.189Z,50.76
2023-01-26T05:10:36.522Z,50.56
2023-01-26T05:13:28.205Z,50.37
2023-01-26T05:16:17.528Z,49.84
2023-01-26T05:19:09.095Z,49.68
2023-01-26T05:21:52.291Z,49.89
2023-01-26T05:24:21.018Z,49.66
2023-01-26T05:27:21.683Z,49.79
2023-01-26T05:30:00.612Z,50.22
2023-01-26T05:32:30.915Z,50.67
2023-01-26T05:34:59.521Z,50.97
2023-01-26T05:37:28.363Z,50.90
2023-01-26T05:39:58.205Z,50.22
2023-01-26T05:42:27.938Z,50.31
2023-01-26T05:45:32.005Z,50.62
2023-01-26T05:48:02.793Z,50.57
2023-01-26T05:50:31.527Z,50.17
2023-01-26T05:53:15.487Z,50.13
2023-01-26T05:55:44.083Z,50.32
2023-01-26T05:58:13.031Z,50.33
2023-01-26T06:00:41.944Z,49.59
2023-01-26T06:03:13.987Z,49.28
2023-01-26T06:05:43.050Z,49.32
2023-01-26T06:08:23.808Z,49.34
2023-01-26T06:11:21.859Z,49.83
2023-01-26T06:14:10.659Z,50.19
2023-01-26T06:16:39.819Z,50.18
2023-01-26T06:19:12.207Z,50.34
2023-01-26T06:21:41.862Z,50.01
2023-01-26T06:24:10.447Z,50.28
2023-01-26T06:26:39.462Z,49.83
2023-01-26T06:29:09.239Z,49.86
2023-01-26T06:31:38.048Z,49.45
2023-01-26T06:34:08.144Z,49.35
2023-01-26T06:36:41.686Z,49.34
2023-01-26T06:39:14.481Z,49.56
2023-01-26T06:41:44.267Z,49.14
2023-01-26T06:44:14.264Z,49.41
2023-01-26T06:46:43.013Z,49.40
2023-01-26T06:49:11.563Z,49.53
2023-01-26T06:52:12.832Z,49.51
2023-01-26T06:54:51.210Z,50.27
2023-01-26T06:57:42.871Z,50.71
2023-01-26T07:00:26.031Z,49.96
2023-01-26T07:02:57.027Z,49.89
2023-01-26T07:05:25.727Z,49.63
2023-01-26T07:07:57.167Z,48.98
2023-01-26T07:10:25.531Z,48.29
2023-01-26T07:12:53.951Z,48.21
2023-01-26T07:15:22.672Z,48.23
2023-01-26T07:17:51.690Z,48.52
2023-01-26T07:20:20.170Z,48.69
2023-01-26T07:22:48.726Z,48.53
2023-01-26T07:25:17.866Z,48.61
2023-01-26T07:27:46.779Z,48.48
2023-01-26T07:30:16.123Z,47.95
2023-01-26T07:32:45.717Z,48.24
2023-01-26T07:35:14.574Z,48.25
2023-01-26T07:37:42.963Z,47.99
2023-01-26T07:40:12.628Z,48.09
2023-01-26T07:42:42.887Z,48.45
2023-01-26T07:45:21.768Z,48.44
2023-01-26T07:47:50.823Z,47.87
2023-01-26T07:50:21.274Z,47.97
2023-01-26T07:52:49.829Z,48.19
2023-01-26T07:55:21.621Z,47.83
2023-01-26T07:57:50.458Z,47.52
2023-01-26T08:00:19.867Z,47.92
2023-01-26T08:02:51.825Z,47.39
2023-01-26T08:05:20.814Z,46.82
2023-01-26T08:07:49.390Z,46.73
2023-01-26T08:10:18.470Z,46.37
2023-01-26T08:12:46.911Z,45.78
2023-01-26T08:15:15.581Z,45.88
2023-01-26T08:17:44.345Z,45.69
2023-01-26T08:20:14.399Z,44.73
2023-01-26T08:22:43.020Z,42.89
2023-01-26T08:25:11.508Z,43.81
2023-01-26T08:27:39.912Z,44.02
2023-01-26T08:30:09.881Z,42.44
2023-01-26T08:32:38.964Z,41.53
2023-01-26T08:35:07.803Z,40.00
2023-01-26T08:37:36.444Z,40.47
2023-01-26T08:40:05.464Z,41.66
2023-01-26T08:42:35.202Z,40.78
2023-01-26T08:45:04.003Z,38.46
2023-01-26T08:47:34.293Z,38.61
2023-01-26T08:50:02.828Z,37.44
2023-01-26T08:52:33.478Z,37.35
2023-01-26T08:55:03.494Z,38.08
2023-01-26T08:57:32.897Z,36.98
2023-01-26T09:00:01.409Z,37.21
2023-01-26T09:02:30.427Z,36.82
2023-01-26T09:04:59.071Z,35.75
2023-01-26T09:07:27.769Z,36.32
2023-01-26T09:09:56.622Z,34.76
2023-01-26T09:12:25.321Z,33.88
2023-01-26T09:14:53.742Z,33.81
2023-01-26T09:17:34.918Z,32.07
2023-01-26T09:20:09.147Z,32.65
2023-01-26T09:22:38.010Z,31.84
2023-01-26T09:25:07.071Z,32.04
2023-01-26T09:27:35.706Z,31.60
2023-01-26T09:30:05.424Z,30.91
2023-01-26T09:32:34.124Z,31.72
2023-01-26T09:35:02.896Z,30.73
2023-01-26T09:37:31.683Z,30.99
2023-01-26T09:40:00.071Z,31.47
2023-01-26T09:42:55.177Z,31.57
2023-01-26T09:45:34.021Z,30.82
2023-01-26T09:48:14.692Z,31.03
2023-01-26T09:50:57.125Z,31.30
2023-01-26T09:53:31.315Z,31.25
2023-01-26T09:56:00.419Z,31.76
2023-01-26T09:58:34.539Z,31.10
2023-01-26T10:01:03.201Z,30.57
2023-01-26T10:03:41.888Z,30.15
2023-01-26T10:06:21.978Z,31.02
2023-01-26T10:09:26.914Z,31.16
2023-01-26T10:11:58.529Z,30.89
2023-01-26T10:14:37.606Z,31.08
2023-01-26T10:17:06.619Z,30.99
2023-01-26T10:19:39.793Z,30.70
2023-01-26T10:22:37.567Z,30.36
2023-01-26T10:25:46.526Z,31.18
2023-01-26T10:28:16.636Z,31.30
2023-01-26T10:30:46.919Z,30.89
2023-01-26T10:33:31.190Z,31.60
2023-01-26T10:36:01.292Z,31.81
2023-01-26T10:38:33.497Z,32.09
2023-01-26T10:41:03.734Z,32.41
2023-01-26T10:43:36.548Z,32.09
2023-01-26T10:46:05.645Z,32.05
2023-01-26T10:48:34.693Z,31.32
2023-01-26T10:51:27.850Z,31.17
2023-01-26T10:54:21.617Z,31.62
2023-01-26T10:56:55.624Z,31.93
2023-01-26T10:59:27.454Z,32.11
2023-01-26T11:02:14.718Z,32.55
2023-01-26T11:05:04.205Z,32.58
2023-01-26T11:07:38.904Z,32.99
2023-01-26T11:10:39.924Z,33.34
2023-01-26T11:13:20.534Z,33.91
2023-01-26T11:15:51.290Z,34.14
2023-01-26T11:18:24.167Z,34.33
2023-01-26T11:21:17.208Z,34.61
2023-01-26T11:23:51.699Z,34.95
2023-01-26T11:26:27.024Z,35.55
2023-01-26T11:29:10.539Z,36.00
2023-01-26T11:31:46.269Z,36.43
2023-01-26T11:34:52.752Z,36.94
2023-01-26T11:38:09.778Z,38.01
2023-01-26T11:40:44.882Z,38.32
2023-01-26T11:43:50.379Z,38.17
2023-01-26T11:46:38.942Z,39.51
2023-01-26T11:49:34.080Z,39.74
2023-01-26T11:52:39.559Z,40.35
2023-01-26T11:55:26.750Z,39.56
2023-01-26T11:58:01.854Z,38.63
2023-01-26T12:00:42.018Z,36.84
2023-01-26T12:03:28.281Z,36.71
2023-01-26T12:06:03.093Z,36.84
2023-01-26T12:09:11.986Z,37.99
2023-01-26T12:11:49.221Z,37.98
2023-01-26T12:14:45.283Z,39.35
2023-01-26T12:17:29.055Z,39.76
2023-01-26T12:20:04.908Z,39.92
2023-01-26T12:22:42.030Z,40.39
2023-01-26T12:25:37.638Z,40.44
2023-01-26T12:28:20.293Z,39.62
2023-01-26T12:31:01.393Z,38.71
2023-01-26T12:33:34.330Z,39.16
2023-01-26T12:36:28.008Z,39.37
2023-01-26T12:39:00.888Z,39.66
2023-01-26T12:41:56.381Z,39.55
2023-01-26T12:44:37.211Z,39.49
2023-01-26T12:47:27.347Z,39.02
2023-01-26T12:50:44.106Z,39.11
2023-01-26T12:53:30.407Z,38.65
2023-01-26T12:56:05.002Z,38.71
2023-01-26T12:58:35.879Z,38.71
2023-01-26T13:01:08.984Z,38.35
2023-01-26T13:03:44.804Z,37.92
2023-01-26T13:06:13.459Z,37.79
2023-01-26T13:08:53.793Z,38.08
2023-01-26T13:11:52.708Z,37.81
2023-01-26T13:14:24.237Z,37.77
2023-01-26T13:16:52.795Z,37.69
2023-01-26T13:19:43.506Z,37.67
2023-01-26T13:22:24.379Z,37.78
2023-01-26T13:24:56.873Z,37.74
2023-01-26T13:27:41.342Z,37.52
2023-01-26T13:30:53.877Z,37.50
2023-01-26T13:33:26.232Z,37.00
2023-01-26T13:35:54.916Z,37.19
2023-01-26T13:38:37.527Z,37.41
2023-01-26T13:41:24.344Z,37.97
2023-01-26T13:44:10.723Z,38.43
2023-01-26T13:46:41.081Z,38.52
2023-01-26T13:49:42.572Z,38.54
2023-01-26T13:52:28.336Z,38.56
2023-01-26T13:55:02.294Z,38.95
2023-01-26T13:57:31.780Z,39.19
2023-01-26T14:00:01.311Z,39.52
2023-01-26T14:02:36.332Z,40.18
2023-01-26T14:05:05.088Z,40.67
2023-01-26T14:07:43.874Z,41.13
2023-01-26T14:10:19.624Z,41.32
2023-01-26T14:12:52.799Z,42.04
2023-01-26T14:15:29.447Z,42.23
2023-01-26T14:18:03.029Z,42.22
2023-01-26T14:20:35.285Z,42.42
2023-01-26T14:23:07.981Z,42.21
2023-01-26T14:25:37.613Z,42.16
2023-01-26T14:28:05.962Z,41.98
2023-01-26T14:30:35.623Z,42.15
2023-01-26T14:33:04.588Z,42.53
2023-01-26T14:35:33.100Z,42.44
2023-01-26T14:38:13.103Z,42.80
2023-01-26T14:40:46.580Z,43.67
2023-01-26T14:43:15.028Z,43.73
2023-01-26T14:45:56.294Z,43.75
2023-01-26T14:48:28.377Z,43.90
2023-01-26T14:50:57.578Z,43.74
2023-01-26T14:53:26.122Z,43.73
2023-01-26T14:55:55.156Z,43.93
2023-01-26T14:58:33.058Z,43.96
2023-01-26T15:01:01.960Z,44.17
2023-01-26T15:03:34.484Z,43.94
2023-01-26T15:06:15.598Z,44.51
2023-01-26T15:08:59.901Z,44.53
2023-01-26T15:11:57.565Z,45.03
2023-01-26T15:14:39.184Z,45.01
2023-01-26T15:17:07.888Z,45.11
2023-01-26T15:19:41.769Z,45.05
2023-01-26T15:22:18.588Z,45.01
2023-01-26T15:25:02.792Z,45.58
2023-01-26T15:27:33.304Z,45.08
2023-01-26T15:30:02.361Z,45.55
2023-01-26T15:32:33.521Z,45.39
2023-01-26T15:35:25.972Z,45.56
2023-01-26T15:38:01.780Z,45.96
2023-01-26T15:40:47.719Z,45.95
2023-01-26T15:43:28.718Z,46.35
2023-01-26T15:46:01.480Z,46.78
2023-01-26T15:48:32.007Z,46.59
2023-01-26T15:51:00.489Z,47.24
2023-01-26T15:53:29.263Z,46.88
2023-01-26T15:56:01.022Z,46.82
2023-01-26T15:58:31.862Z,46.42
2023-01-26T16:01:00.726Z,46.67
2023-01-26T16:03:29.673Z,46.55
2023-01-26T16:05:58.140Z,46.62
2023-01-26T16:08:26.647Z,46.61
2023-01-26T16:10:57.034Z,46.66
2023-01-26T16:13:25.779Z,46.65
2023-01-26T16:15:54.438Z,46.50
2023-01-26T16:18:22.894Z,46.72
2023-01-26T16:20:51.161Z,46.84
2023-01-26T16:23:20.712Z,46.99
2023-01-26T16:25:51.471Z,47.21
2023-01-26T16:28:20.083Z,47.30
2023-01-26T16:30:50.388Z,47.50
2023-01-26T16:33:22.029Z,47.74
2023-01-26T16:35:50.294Z,47.48
2023-01-26T16:38:19.365Z,47.39
2023-01-26T16:40:48.291Z,47.39
2023-01-26T16:43:23.796Z,47.42
2023-01-26T16:45:53.003Z,47.94
2023-01-26T16:48:21.997Z,48.18
2023-01-26T16:50:52.232Z,48.33
2023-01-26T16:53:29.199Z,48.34
2023-01-26T16:55:57.599Z,48.59
2023-01-26T16:58:26.828Z,48.48
2023-01-26T17:00:55.631Z,48.58
2023-01-26T17:03:24.296Z,48.54
2023-01-26T17:05:55.147Z,48.77
2023-01-26T17:08:23.686Z,48.62
2023-01-26T17:11:02.078Z,48.74
2023-01-26T17:13:32.902Z,48.99
2023-01-26T17:16:01.751Z,49.29
2023-01-26T17:18:33.676Z,49.05
2023-01-26T17:21:03.859Z,48.92
2023-01-26T17:23:34.611Z,49.26
2023-01-26T17:26:03.934Z,49.11
2023-01-26T17:28:35.081Z,49.23
2023-01-26T17:31:11.004Z,49.27
2023-01-26T17:33:40.240Z,49.35
2023-01-26T17:36:09.183Z,49.29
2023-01-26T17:38:39.209Z,49.40
2023-01-26T17:41:08.242Z,49.13
2023-01-26T17:43:38.467Z,49.12
2023-01-26T17:46:14.020Z,49.34
2023-01-26T17:48:45.303Z,49.76
2023-01-26T17:51:19.083Z,49.71
2023-01-26T17:53:49.814Z,49.85
2023-01-26T17:56:20.077Z,50.24
2023-01-26T17:58:53.498Z,50.31
2023-01-26T18:01:23.218Z,49.82
2023-01-26T18:03:53.770Z,49.53
2023-01-26T18:06:22.474Z,49.24
2023-01-26T18:08:52.103Z,49.35
2023-01-26T18:11:20.678Z,49.29
2023-01-26T18:13:49.478Z,48.38
2023-01-26T18:16:20.094Z,47.62
2023-01-26T18:18:48.956Z,47.33
2023-01-26T18:21:22.836Z,47.08
2023-01-26T18:23:52.749Z,47.13
2023-01-26T18:26:24.972Z,46.83
2023-01-26T18:28:53.428Z,46.84
2023-01-26T18:31:27.262Z,46.83
2023-01-26T18:33:59.308Z,46.92
2023-01-26T18:36:27.999Z,46.94
2023-01-26T18:39:01.512Z,46.97
2023-01-26T18:41:31.336Z,47.29
2023-01-26T18:44:00.510Z,47.27
2023-01-26T18:46:31.170Z,47.06
2023-01-26T18:49:01.153Z,47.29
2023-01-26T18:51:31.157Z,47.41
2023-01-26T18:53:59.581Z,47.65
2023-01-26T18:56:28.839Z,47.59
2023-01-26T18:58:57.770Z,47.60
2023-01-26T19:01:26.470Z,47.60
2023-01-26T19:03:55.913Z,47.55
2023-01-26T19:06:25.798Z,47.41
2023-01-26T19:08:59.502Z,47.39
2023-01-26T19:11:31.286Z,47.44
2023-01-26T19:13:59.985Z,47.65
2023-01-26T19:16:29.262Z,47.52
2023-01-26T19:18:57.982Z,47.53
2023-01-26T19:21:28.216Z,47.59
2023-01-26T19:23:58.812Z,47.40
2023-01-26T19:26:30.965Z,47.44
2023-01-26T19:29:01.989Z,47.65
2023-01-26T19:31:32.337Z,47.52
2023-01-26T19:34:02.754Z,47.60
2023-01-26T19:36:32.799Z,47.35
2023-01-26T19:39:04.803Z,47.65
2023-01-26T19:41:34.843Z,47.67
2023-01-26T19:44:03.335Z,47.46
2023-01-26T19:46:32.154Z,47.55
2023-01-26T19:49:00.687Z,47.52
2023-01-26T19:51:30.126Z,47.95
2023-01-26T19:54:02.390Z,47.96
2023-01-26T19:56:32.600Z,47.82
2023-01-26T19:59:04.028Z,47.86
2023-01-26T20:01:33.651Z,47.84
2023-01-26T20:04:04.271Z,48.10
2023-01-26T20:06:36.870Z,48.14
2023-01-26T20:09:06.313Z,48.23
2023-01-26T20:11:35.215Z,47.81
2023-01-26T20:14:09.054Z,47.82
2023-01-26T20:16:38.186Z,47.87
2023-01-26T20:19:07.079Z,47.98
2023-01-26T20:21:35.827Z,47.82
2023-01-26T20:24:06.390Z,47.91
2023-01-26T20:26:36.405Z,47.85
2023-01-26T20:29:05.237Z,47.55
2023-01-26T20:31:34.266Z,47.51
2023-01-26T20:34:04.524Z,47.25
2023-01-26T20:36:33.975Z,47.45
2023-01-26T20:39:02.816Z,47.62
2023-01-26T20:41:33.617Z,47.90
2023-01-26T20:44:06.978Z,48.22
2023-01-26T20:46:37.927Z,48.35
2023-01-26T20:49:08.892Z,48.32
2023-01-26T20:51:40.729Z,48.01
2023-01-26T20:54:12.266Z,48.08
2023-01-26T20:56:41.185Z,47.92
2023-01-26T20:59:10.839Z,47.90
2023-01-26T21:01:39.464Z,47.84
2023-01-26T21:04:07.696Z,47.58
2023-01-26T21:06:39.369Z,47.36
2023-01-26T21:09:12.677Z,47.60
2023-01-26T21:11:41.759Z,47.67
2023-01-26T21:14:11.714Z,47.82
2023-01-26T21:16:41.673Z,47.95
2023-01-26T21:19:10.168Z,47.95
2023-01-26T21:21:38.581Z,47.96
2023-01-26T21:24:07.378Z,48.11
2023-01-26T21:26:35.820Z,48.19
2023-01-26T21:29:07.832Z,48.21
2023-01-26T21:31:36.461Z,48.08
2023-01-26T21:34:05.221Z,48.01
2023-01-26T21:36:34.926Z,47.87
2023-01-26T21:39:03.810Z,47.83
2023-01-26T21:41:52.403Z,47.79
2023-01-26T21:44:58.947Z,47.83
2023-01-26T21:47:27.651Z,48.16
2023-01-26T21:49:58.820Z,47.95
2023-01-26T21:52:45.756Z,48.12
2023-01-26T21:55:14.505Z,48.07
2023-01-26T21:58:01.352Z,48.12
2023-01-26T22:00:31.698Z,48.00
2023-01-26T22:03:01.147Z,47.89
2023-01-26T22:05:29.739Z,48.02
2023-01-26T22:07:58.810Z,48.04
2023-01-26T22:10:29.083Z,47.89
2023-01-26T22:12:57.333Z,47.77
2023-01-26T22:15:26.200Z,48.01
2023-01-26T22:17:58.469Z,48.14
2023-01-26T22:20:27.296Z,47.79
2023-01-26T22:22:55.707Z,47.83
2023-01-26T22:25:24.914Z,47.81
2023-01-26T22:27:53.343Z,47.69
2023-01-26T22:30:21.756Z,47.78
2023-01-26T22:32:50.518Z,47.98
2023-01-26T22:35:19.274Z,48.19
2023-01-26T22:37:47.942Z,48.77
2023-01-26T22:40:16.750Z,48.60
2023-01-26T22:42:45.190Z,48.37
2023-01-26T22:45:14.246Z,48.51
2023-01-26T22:47:42.699Z,48.71
2023-01-26T22:50:11.909Z,48.61
2023-01-26T22:52:41.653Z,48.48
2023-01-26T22:55:10.322Z,48.23
2023-01-26T22:57:38.884Z,48.32
2023-01-26T23:00:08.294Z,48.57
2023-01-26T23:02:37.153Z,48.67
2023-01-26T23:05:06.249Z,48.56
2023-01-26T23:07:34.752Z,48.65
2023-01-26T23:10:03.528Z,48.87
2023-01-26T23:12:31.963Z,49.02
2023-01-26T23:15:00.890Z,48.88
2023-01-26T23:17:29.823Z,48.82
2023-01-26T23:19:59.307Z,48.80
2023-01-26T23:22:27.660Z,48.64
2023-01-26T23:25:15.135Z,48.22
2023-01-26T23:27:43.499Z,48.42
2023-01-26T23:30:13.094Z,48.61
2023-01-26T23:32:41.780Z,48.43
2023-01-26T23:35:10.102Z,48.45
2023-01-26T23:37:38.629Z,48.33
2023-01-26T23:40:07.832Z,48.32
2023-01-26T23:42:55.823Z,48.33
2023-01-26T23:45:24.854Z,48.29
2023-01-26T23:47:53.447Z,48.06
2023-01-26T23:50:21.979Z,48.00
2023-01-26T23:52:52.771Z,48.37
2023-01-26T23:55:21.215Z,48.50
2023-01-26T23:57:50.200Z,48.60
